WetterOnline ( http://www.wetteronline.de )

Wetter aktuell Offenburg

Aktuelles Wetter: Lahr (156m)

6-stündlich | Neueste Meldungen
Ortszeit Temperatur Wetter
Fr, 21.09. 14:00 26.3° C wolkig
Fr, 21.09. 8:00 15.0° C leicht bewölkt
Fr, 21.09. 2:00 16.1° C wolkig
Do, 20.09. 20:00 22.8° C wolkig
Do, 20.09. 14:00 28.5° C leicht bewölkt
Do, 20.09. 8:00 14.4° C wolkig
Do, 20.09. 2:00 16.3° C fast wolkenlos
Mi, 19.09. 20:00 24.6° C fast wolkenlos
Ortszeit Temperatur Wetter
Fr, 21.09. 15:30 25.3° C bedeckt
Fr, 21.09. 15:20 25.3° C bedeckt
Fr, 21.09. 15:10 25.6° C bedeckt
Fr, 21.09. 15:00 25.9° C wolkig
Fr, 21.09. 14:50 25.9° C wolkig
Fr, 21.09. 14:40 26.4° C wolkig
Fr, 21.09. 14:30 26.1° C bedeckt
Fr, 21.09. 14:00 26.3° C wolkig
Fr, 21.09. 13:30 26.0° C wolkig
Fr, 21.09. 13:00 25.5° C bewölkt
Fr, 21.09. 12:30 26.1° C bedeckt
Ortszeit Relative Feuchte Sichtweite
Fr, 21.09. 14:00 48% 40 km
Fr, 21.09. 8:00 87% 7 km
Fr, 21.09. 2:00 80% 21 km
Do, 20.09. 20:00 57% 21 km
Do, 20.09. 14:00 38% 40 km
Do, 20.09. 8:00 91% 12 km
Do, 20.09. 2:00 87% 19 km
Mi, 19.09. 20:00 54% 40 km
Ortszeit Relative Feuchte Sichtweite
Fr, 21.09. 15:30 35% 60 km
Fr, 21.09. 15:20 35% -
Fr, 21.09. 15:10 34% -
Fr, 21.09. 15:00 42% 45 km
Fr, 21.09. 14:50 42% -
Fr, 21.09. 14:40 42% -
Fr, 21.09. 14:30 45% 50 km
Fr, 21.09. 14:00 48% 40 km
Fr, 21.09. 13:30 49% 40 km
Fr, 21.09. 13:00 48% 45 km
Fr, 21.09. 12:30 45% 40 km
Ortszeit Niederschlagsmenge Niederschlagsart
Fr, 21.09. 14:00 0.0 l/m2 in 6 Std. -
Fr, 21.09. 8:00 0.0 l/m2 in 12 Std. -
Fr, 21.09. 2:00 0.0 l/m2 in 6 Std. -
Do, 20.09. 20:00 0.0 l/m2 in 12 Std. -
Do, 20.09. 14:00 0.0 l/m2 in 6 Std. -
Do, 20.09. 8:00 0.0 l/m2 in 12 Std. -
Do, 20.09. 2:00 0.0 l/m2 in 6 Std. -
Mi, 19.09. 20:00 0.0 l/m2 in 12 Std. -
Ortszeit Niederschlagsmenge Niederschlagsart
Fr, 21.09. 15:30 0.0 l/m2 in 1 Std. -
Fr, 21.09. 15:20 keine Meldung -
Fr, 21.09. 15:10 keine Meldung -
Fr, 21.09. 15:00 0.0 l/m2 in 1 Std. -
Fr, 21.09. 14:50 keine Meldung -
Fr, 21.09. 14:40 keine Meldung -
Fr, 21.09. 14:30 0.0 l/m2 in 1 Std. -
Fr, 21.09. 14:00 0.0 l/m2 in 1 Std. -
Fr, 21.09. 13:30 0.0 l/m2 in 1 Std. -
Fr, 21.09. 13:00 0.0 l/m2 in 1 Std. -
Fr, 21.09. 12:30 0.0 l/m2 in 1 Std. -
Ortszeit Stärke Spitze Richtung
km/h Bft. km/h Grad Sektor
Fr, 21.09. 14:00 22 4 40 230° SW
Fr, 21.09. 8:00 7 2 11 270° W
Fr, 21.09. 2:00 6 1 11 240° SW
Do, 20.09. 20:00 2 1 19 120° SO
Do, 20.09. 14:00 9 2 19 200° S
Do, 20.09. 8:00 0 0 11 - -
Do, 20.09. 2:00 4 1 11 280° W
Mi, 19.09. 20:00 7 2 22 150° SO
Ortszeit Stärke Spitze Richtung
km/h Bft. km/h Grad Sektor
Fr, 21.09. 15:30 24 4 43 240° SW
Fr, 21.09. 15:20 24 4 - 240° SW
Fr, 21.09. 15:10 28 4 - 240° SW
Fr, 21.09. 15:00 18 3 40 260° W
Fr, 21.09. 14:50 18 3 - 260° W
Fr, 21.09. 14:40 22 4 - 260° W
Fr, 21.09. 14:30 14 3 40 280° W
Fr, 21.09. 14:00 22 4 32 230° SW
Fr, 21.09. 13:30 15 3 26 220° SW
Fr, 21.09. 13:00 19 3 33 220° SW
Fr, 21.09. 12:30 19 3 33 210° SW
Ortszeit Untergrenze Bedeckung Gattung
total tief tief mittel hoch
Fr, 21.09. 14:00 1800 m 8/8 1/8 - - -
Fr, 21.09. 8:00 7200 m 6/8 0/8 - - -
Fr, 21.09. 2:00 10500 m 7/8 0/8 - - -
Do, 20.09. 20:00 10500 m 8/8 0/8 - - -
Do, 20.09. 14:00 10500 m 5/8 0/8 - - -
Do, 20.09. 8:00 9000 m 8/8 0/8 - - -
Do, 20.09. 2:00 10500 m 2/8 0/8 - - -
Mi, 19.09. 20:00 3600 m 1/8 1/8 - - -
Ortszeit Bedeckungsgrad in Achtel und Wolkenuntergrenze
Fr, 21.09. 15:30 8(3600m) 8(3900m) 8(4500m)
Fr, 21.09. 15:20 8(3600m) 8(3900m) 8(4500m)
Fr, 21.09. 15:10 7(3600m) 8(3900m) 8(4500m)
Fr, 21.09. 15:00 2(2700m) 8(4500m) 8(5100m)
Fr, 21.09. 14:50 2(2700m) 8(4500m) 8(5100m)
Fr, 21.09. 14:40 3(2700m) 8(4500m) 8(5100m)
Fr, 21.09. 14:30 3(3600m) 8(4500m) 8(5100m)
Fr, 21.09. 14:00 1(1800m) 8(4800m) 8(6000m)
Fr, 21.09. 13:30 1(1500m) 8(4200m) 8(5100m)
Fr, 21.09. 13:00 1(1500m) 5(2700m) 8(4200m)
Fr, 21.09. 12:30 3(3000m) 7(5100m) 8(5700m)
Ortszeit Luftdruck NN (hPa) Tendenz (hPa in 3 Std.)
Fr, 21.09. 14:00 1011 - 0,2
Fr, 21.09. 8:00 1012 - 0,8
Fr, 21.09. 2:00 1014 - 1,0
Do, 20.09. 20:00 1015 - 1,3
Do, 20.09. 14:00 1018 - 1,7
Do, 20.09. 8:00 1021 + 0,7
Do, 20.09. 2:00 1020 + 0,4
Mi, 19.09. 20:00 1018 - 0,2
Ortszeit Luftdruck NN (hPa) Tendenz (hPa in 3 Std.)
Fr, 21.09. 15:30 1010 - 0,6
Fr, 21.09. 15:20 1010 keine Meldung
Fr, 21.09. 15:10 1011 keine Meldung
Fr, 21.09. 15:00 1011 - 0,2
Fr, 21.09. 14:50 1011 keine Meldung
Fr, 21.09. 14:40 1011 keine Meldung
Fr, 21.09. 14:30 1011 - 0,3
Fr, 21.09. 14:00 1011 - 0,2
Fr, 21.09. 13:30 1011 - 0,3
Fr, 21.09. 13:00 1011 0,0
Fr, 21.09. 12:30 1011 - 0,1
Ortszeit Schneehöhe (cm)
Fr, 21.09. 14:00 -
Fr, 21.09. 8:00 -
Fr, 21.09. 2:00 -
Do, 20.09. 20:00 -
Do, 20.09. 14:00 -
Do, 20.09. 8:00 -
Do, 20.09. 2:00 -
Mi, 19.09. 20:00 -
Ortszeit Schneehöhe (cm)
Fr, 21.09. 15:30 -
Fr, 21.09. 15:20 -
Fr, 21.09. 15:10 -
Fr, 21.09. 15:00 -
Fr, 21.09. 14:50 -
Fr, 21.09. 14:40 -
Fr, 21.09. 14:30 -
Fr, 21.09. 14:00 -
Fr, 21.09. 13:30 -
Fr, 21.09. 13:00 -
Fr, 21.09. 12:30 -
Link zu dieser Seite / Seite empfehlen

Das Wetter in ...